createdAt,value
2018-11-11T00:02:46.450Z,1012.8
2018-11-11T00:07:46.423Z,1012.8
2018-11-11T00:12:46.360Z,1013
2018-11-11T00:17:46.378Z,1013
2018-11-11T00:22:46.381Z,1013.1
2018-11-11T00:27:46.376Z,1013
2018-11-11T00:32:57.524Z,1013
2018-11-11T00:37:57.238Z,1013.1
2018-11-11T00:42:57.179Z,1013
2018-11-11T00:47:57.114Z,1013
2018-11-11T00:52:57.193Z,1013
2018-11-11T00:57:57.154Z,1013
2018-11-11T01:02:57.156Z,1013
2018-11-11T01:07:57.160Z,1012.9
2018-11-11T01:12:57.158Z,1013
2018-11-11T01:18:08.148Z,1012.9
2018-11-11T01:23:08.172Z,1013
2018-11-11T01:28:08.158Z,1013
2018-11-11T01:33:08.145Z,1013
2018-11-11T01:38:08.172Z,1013
2018-11-11T01:43:08.162Z,1013
2018-11-11T01:48:08.168Z,1013
2018-11-11T01:53:08.153Z,1012.9
2018-11-11T01:58:08.184Z,1012.8
2018-11-11T02:03:19.294Z,1012.9
2018-11-11T02:08:19.310Z,1013.1
2018-11-11T02:13:19.311Z,1013
2018-11-11T02:18:19.313Z,1013
2018-11-11T02:23:19.292Z,1013.1
2018-11-11T02:28:19.293Z,1013.1
2018-11-11T02:33:19.336Z,1013.1
2018-11-11T02:38:19.271Z,1013.1
2018-11-11T02:43:19.325Z,1013.1
2018-11-11T02:48:30.302Z,1013.2
2018-11-11T02:53:30.398Z,1013.3
2018-11-11T02:58:30.325Z,1013.2
2018-11-11T03:03:30.283Z,1013.2
2018-11-11T03:08:30.294Z,1013.2
2018-11-11T03:13:30.401Z,1013.2
2018-11-11T03:18:30.294Z,1013.2
2018-11-11T03:23:30.305Z,1013.3
2018-11-11T03:28:30.299Z,1013.4
2018-11-11T03:33:40.994Z,1013.4
2018-11-11T03:38:41.057Z,1013.5
2018-11-11T03:43:40.988Z,1013.7
2018-11-11T03:48:41.021Z,1013.8
2018-11-11T03:53:41.015Z,1013.8
2018-11-11T03:58:41.352Z,1013.9
2018-11-11T04:03:41.048Z,1013.8
2018-11-11T04:08:40.961Z,1013.7
2018-11-11T04:13:41.024Z,1013.8
2018-11-11T04:18:52.568Z,1014
2018-11-11T04:23:52.581Z,1014.1
2018-11-11T04:28:52.586Z,1014.1
2018-11-11T04:33:52.601Z,1014.1
2018-11-11T04:38:52.580Z,1014.2
2018-11-11T04:43:52.592Z,1014.3
2018-11-11T04:48:52.587Z,1014.2
2018-11-11T04:53:52.582Z,1014.2
2018-11-11T04:58:52.596Z,1014.5
2018-11-11T05:04:03.623Z,1014.6
2018-11-11T05:09:03.727Z,1014.8
2018-11-11T05:14:03.618Z,1014.9
2018-11-11T05:19:03.653Z,1014.9
2018-11-11T05:24:03.643Z,1014.9
2018-11-11T05:29:03.631Z,1014.9
2018-11-11T05:34:03.641Z,1015
2018-11-11T05:39:04.625Z,1015.1
2018-11-11T05:44:04.620Z,1015.1
2018-11-11T05:49:17.169Z,1015.3
2018-11-11T05:54:17.394Z,1015.3
2018-11-11T05:59:17.321Z,1015.4
2018-11-11T06:04:17.167Z,1015.3
2018-11-11T06:09:17.192Z,1015.4
2018-11-11T06:14:17.167Z,1015.4
2018-11-11T06:19:17.186Z,1015.5
2018-11-11T06:24:17.181Z,1015.6
2018-11-11T06:29:17.178Z,1015.6
2018-11-11T06:34:28.470Z,1015.8
2018-11-11T06:39:28.458Z,1015.8
2018-11-11T06:44:28.551Z,1015.9
2018-11-11T06:49:28.660Z,1016
2018-11-11T06:54:28.508Z,1015.9
2018-11-11T06:59:28.459Z,1015.9
2018-11-11T07:04:28.491Z,1016
2018-11-11T07:09:28.484Z,1016.2
2018-11-11T07:14:28.488Z,1016.3
2018-11-11T07:19:40.273Z,1016.3
2018-11-11T07:24:40.295Z,1016.3
2018-11-11T07:29:43.164Z,1016.2
2018-11-11T07:34:40.298Z,1016.2
2018-11-11T07:39:40.286Z,1016.2
2018-11-11T07:44:40.314Z,1016.2
2018-11-11T07:49:40.274Z,1016.4
2018-11-11T07:54:40.292Z,1016.4
2018-11-11T07:59:40.277Z,1016.6
2018-11-11T08:04:52.309Z,1016.6
2018-11-11T08:09:52.255Z,1016.7
2018-11-11T08:14:52.319Z,1016.8
2018-11-11T08:19:52.234Z,1017
2018-11-11T08:24:52.247Z,1017
2018-11-11T08:29:52.257Z,1017
2018-11-11T08:34:52.257Z,1017.1
2018-11-11T08:39:52.242Z,1017.1
2018-11-11T08:44:52.485Z,1017.1
2018-11-11T08:50:04.538Z,1017.1
2018-11-11T08:55:04.438Z,1017
2018-11-11T09:00:04.655Z,1017
2018-11-11T09:05:04.455Z,1017.2
2018-11-11T09:10:04.440Z,1017.3
2018-11-11T09:15:04.464Z,1017.5
2018-11-11T09:20:04.445Z,1017.4
2018-11-11T09:25:04.571Z,1017.3
2018-11-11T09:30:04.529Z,1017.4
2018-11-11T09:35:16.061Z,1017.4
2018-11-11T09:40:16.244Z,1017.4
2018-11-11T09:45:15.688Z,1017.3
2018-11-11T09:50:16.236Z,1017.2
2018-11-11T09:55:16.300Z,1017.1
2018-11-11T10:00:15.742Z,1017.2
2018-11-11T10:05:15.700Z,1017
2018-11-11T10:10:15.936Z,1017.1
2018-11-11T10:15:15.829Z,1017
2018-11-11T10:20:29.199Z,1017.2
2018-11-11T10:25:28.738Z,1017.2
2018-11-11T10:30:28.677Z,1017.1
2018-11-11T10:42:41.253Z,1017.4
2018-11-11T10:47:41.146Z,1017.4
2018-11-11T10:52:42.206Z,1017.2
2018-11-11T10:57:41.085Z,1017.2
2018-11-11T11:02:50.766Z,1017.4
2018-11-11T11:07:50.723Z,1017.1
2018-11-11T11:12:50.719Z,1017
2018-11-11T11:17:50.701Z,1017
2018-11-11T11:22:50.814Z,1016.9
2018-11-11T11:27:50.758Z,1017
2018-11-11T11:32:50.834Z,1017
2018-11-11T11:37:51.077Z,1016.9
2018-11-11T11:42:51.085Z,1016.9
2018-11-11T11:48:03.145Z,1017
2018-11-11T11:53:03.798Z,1017
2018-11-11T11:58:03.256Z,1017.1
2018-11-11T12:03:03.120Z,1017
2018-11-11T12:08:03.116Z,1016.8
2018-11-11T12:13:03.189Z,1016.9
2018-11-11T12:18:03.130Z,1016.9
2018-11-11T12:23:03.239Z,1016.9
2018-11-11T12:28:03.326Z,1016.7
2018-11-11T12:33:16.895Z,1016.8
2018-11-11T12:38:14.287Z,1016.9
2018-11-11T12:43:14.478Z,1016.8
2018-11-11T12:48:14.358Z,1016.9
2018-11-11T12:53:14.307Z,1016.8
2018-11-11T12:58:14.453Z,1017
2018-11-11T13:03:14.163Z,1017.1
2018-11-11T13:08:14.958Z,1017.3
2018-11-11T13:13:15.031Z,1017.4
2018-11-11T13:18:27.545Z,1017.3
2018-11-11T13:23:27.573Z,1017.3
2018-11-11T13:28:27.578Z,1017.4
2018-11-11T13:33:27.605Z,1017.3
2018-11-11T13:38:27.847Z,1017.4
2018-11-11T13:43:27.595Z,1017.6
2018-11-11T13:48:27.749Z,1017.4
2018-11-11T13:53:27.605Z,1017.6
2018-11-11T13:58:27.613Z,1017.7
2018-11-11T14:03:38.997Z,1017.6
2018-11-11T14:08:39.016Z,1017.6
2018-11-11T14:13:39.020Z,1017.6
2018-11-11T14:18:39.843Z,1017.8
2018-11-11T14:23:38.971Z,1017.8
2018-11-11T14:28:39.249Z,1017.8
2018-11-11T14:33:39.021Z,1017.9
2018-11-11T14:38:39.345Z,1017.7
2018-11-11T14:43:39.008Z,1017.8
2018-11-11T14:48:50.303Z,1017.7
2018-11-11T14:53:50.538Z,1017.8
2018-11-11T14:58:51.206Z,1017.9
2018-11-11T15:03:50.279Z,1017.9
2018-11-11T15:08:50.284Z,1018.4
2018-11-11T15:13:50.416Z,1018.4
2018-11-11T15:18:50.445Z,1018.3
2018-11-11T15:23:50.265Z,1018.3
2018-11-11T15:28:50.291Z,1018.4
2018-11-11T15:34:01.677Z,1018.5
2018-11-11T15:39:01.681Z,1018.5
2018-11-11T15:44:01.751Z,1018.6
2018-11-11T15:49:01.770Z,1018.8
2018-11-11T15:54:01.725Z,1018.9
2018-11-11T15:59:01.878Z,1019
2018-11-11T16:04:01.715Z,1019
2018-11-11T16:09:04.759Z,1019
2018-11-11T16:14:02.691Z,1019.1
2018-11-11T16:19:15.909Z,1019.2
2018-11-11T16:24:16.554Z,1019.2
2018-11-11T16:29:16.130Z,1019.2
2018-11-11T16:34:15.895Z,1019.1
2018-11-11T16:39:16.139Z,1019.1
2018-11-11T16:44:15.903Z,1019.1
2018-11-11T16:49:15.866Z,1019.2
2018-11-11T16:56:00.349Z,1019.1
2018-11-11T17:01:03.513Z,1019.1
2018-11-11T17:06:00.598Z,1019.2
2018-11-11T17:11:00.443Z,1019
2018-11-11T17:16:00.540Z,1019.2
2018-11-11T17:21:00.751Z,1019.2
2018-11-11T17:26:00.727Z,1019.3
2018-11-11T17:31:04.091Z,1019.4
2018-11-11T17:36:04.531Z,1019.3
2018-11-11T17:41:16.052Z,1019.1
2018-11-11T17:46:16.078Z,1019.1
2018-11-11T17:51:16.137Z,1019.3
2018-11-11T17:56:16.065Z,1019.1
2018-11-11T18:01:17.529Z,1018.9
2018-11-11T18:06:16.110Z,1018.9
2018-11-11T18:11:16.243Z,1018.8
2018-11-11T18:16:18.034Z,1018.7
2018-11-11T18:21:17.915Z,1018.7
2018-11-11T18:26:30.355Z,1018.6
2018-11-11T18:31:30.417Z,1018.5
2018-11-11T18:36:30.177Z,1018.5
2018-11-11T18:41:30.494Z,1018.6
2018-11-11T18:46:30.150Z,1018.6
2018-11-11T18:51:30.092Z,1018.5
2018-11-11T18:56:30.071Z,1018.8
2018-11-11T19:01:30.444Z,1018.6
2018-11-11T19:06:30.065Z,1018.5
2018-11-11T19:11:39.933Z,1018.5
2018-11-11T19:16:39.909Z,1018.6
2018-11-11T19:21:40.308Z,1018.7
2018-11-11T19:26:39.921Z,1018.7
2018-11-11T19:31:40.223Z,1018.9
2018-11-11T19:36:42.620Z,1019.2
2018-11-11T19:41:40.221Z,1019.2
2018-11-11T19:46:40.821Z,1019.3
2018-11-11T19:51:40.717Z,1019.4
2018-11-11T19:56:53.839Z,1019.4
2018-11-11T20:01:53.348Z,1019.7
2018-11-11T20:06:53.469Z,1019.8
2018-11-11T20:11:53.251Z,1019.8
2018-11-11T20:16:53.251Z,1019.8
2018-11-11T20:21:53.196Z,1019.9
2018-11-11T20:26:54.068Z,1019.9
2018-11-11T20:31:58.617Z,1019.8
2018-11-11T20:36:57.560Z,1019.8
2018-11-11T20:42:12.995Z,1019.8
2018-11-11T20:47:11.674Z,1019.5
2018-11-11T20:52:11.831Z,1019.6
2018-11-11T20:57:11.966Z,1019.6
2018-11-11T21:02:11.593Z,1019.6
2018-11-11T21:07:12.010Z,1019.6
2018-11-11T21:12:12.087Z,1019.7
2018-11-11T21:17:13.807Z,1019.7
2018-11-11T21:22:13.622Z,1019.8
2018-11-11T21:27:24.950Z,1019.7
2018-11-11T21:32:25.168Z,1019.9
2018-11-11T21:37:25.107Z,1019.9
2018-11-11T21:42:25.139Z,1019.9
2018-11-11T21:47:24.944Z,1020
2018-11-11T21:52:25.203Z,1020.1
2018-11-11T21:57:25.180Z,1020.2
2018-11-11T22:02:25.284Z,1020.3
2018-11-11T22:07:25.080Z,1020.3
2018-11-11T22:12:37.056Z,1020.3
2018-11-11T22:17:37.341Z,1020.4
2018-11-11T22:22:37.042Z,1020.4
2018-11-11T22:27:37.187Z,1020.5
2018-11-11T22:32:37.239Z,1020.7
2018-11-11T22:37:37.051Z,1020.8
2018-11-11T22:42:37.072Z,1020.9
2018-11-11T22:47:37.399Z,1020.9
2018-11-11T22:52:37.925Z,1021.1
2018-11-11T22:57:49.912Z,1021.1
2018-11-11T23:02:49.902Z,1021.1
2018-11-11T23:07:50.055Z,1021
2018-11-11T23:12:50.215Z,1020.9
2018-11-11T23:17:50.043Z,1020.9
2018-11-11T23:22:49.949Z,1021
2018-11-11T23:27:49.950Z,1020.9
2018-11-11T23:32:52.976Z,1020.8
2018-11-11T23:37:53.150Z,1020.8
2018-11-11T23:43:05.005Z,1020.9
2018-11-11T23:48:05.226Z,1020.8
2018-11-11T23:53:05.078Z,1020.7
2018-11-11T23:58:05.128Z,1020.7
